sensor_id;sensor_type;location;lat;lon;timestamp;P1;durP1;ratioP1;P2;durP2;ratioP2
57663;SDS011;43493;53.098;6.064;2022-09-24T00:01:24;49.47;;;44.13;;
57663;SDS011;43493;53.098;6.064;2022-09-24T00:03:59;44.80;;;40.07;;
57663;SDS011;43493;53.098;6.064;2022-09-24T00:06:27;49.80;;;44.13;;
57663;SDS011;43493;53.098;6.064;2022-09-24T00:08:55;43.20;;;38.67;;
57663;SDS011;43493;53.098;6.064;2022-09-24T00:11:25;44.43;;;39.73;;
57663;SDS011;43493;53.098;6.064;2022-09-24T00:13:52;46.13;;;41.27;;
57663;SDS011;43493;53.098;6.064;2022-09-24T00:16:20;50.70;;;45.40;;
57663;SDS011;43493;53.098;6.064;2022-09-24T00:18:47;46.53;;;41.73;;
57663;SDS011;43493;53.098;6.064;2022-09-24T00:21:29;44.63;;;39.97;;
57663;SDS011;43493;53.098;6.064;2022-09-24T00:23:59;45.43;;;39.70;;
57663;SDS011;43493;53.098;6.064;2022-09-24T00:26:27;50.10;;;43.57;;
57663;SDS011;43493;53.098;6.064;2022-09-24T00:29:12;47.83;;;42.77;;
57663;SDS011;43493;53.098;6.064;2022-09-24T00:31:41;49.27;;;43.87;;
57663;SDS011;43493;53.098;6.064;2022-09-24T00:34:07;49.67;;;44.40;;
57663;SDS011;43493;53.098;6.064;2022-09-24T00:36:33;54.13;;;47.30;;
57663;SDS011;43493;53.098;6.064;2022-09-24T00:38:58;49.97;;;44.67;;
57663;SDS011;43493;53.098;6.064;2022-09-24T00:41:26;48.00;;;42.80;;
57663;SDS011;43493;53.098;6.064;2022-09-24T00:43:54;48.53;;;43.53;;
57663;SDS011;43493;53.098;6.064;2022-09-24T00:48:50;60.90;;;54.17;;
57663;SDS011;43493;53.098;6.064;2022-09-24T00:51:22;53.93;;;48.00;;
57663;SDS011;43493;53.098;6.064;2022-09-24T00:53:51;59.87;;;47.93;;
57663;SDS011;43493;53.098;6.064;2022-09-24T00:56:20;56.13;;;50.07;;
57663;SDS011;43493;53.098;6.064;2022-09-24T00:58:52;57.20;;;51.03;;
57663;SDS011;43493;53.098;6.064;2022-09-24T01:01:21;57.90;;;51.33;;
57663;SDS011;43493;53.098;6.064;2022-09-24T01:03:48;69.27;;;57.30;;
57663;SDS011;43493;53.098;6.064;2022-09-24T01:06:16;67.53;;;57.60;;
57663;SDS011;43493;53.098;6.064;2022-09-24T01:08:42;73.67;;;62.70;;
57663;SDS011;43493;53.098;6.064;2022-09-24T01:19:24;58.20;;;51.83;;
57663;SDS011;43493;53.098;6.064;2022-09-24T01:22:23;90.83;;;72.43;;
57663;SDS011;43493;53.098;6.064;2022-09-24T01:25:30;77.83;;;61.10;;
57663;SDS011;43493;53.098;6.064;2022-09-24T01:31:14;71.17;;;60.33;;
57663;SDS011;43493;53.098;6.064;2022-09-24T01:33:44;65.77;;;55.93;;
57663;SDS011;43493;53.098;6.064;2022-09-24T01:36:13;69.80;;;56.83;;
57663;SDS011;43493;53.098;6.064;2022-09-24T01:38:41;76.20;;;60.70;;
57663;SDS011;43493;53.098;6.064;2022-09-24T01:41:09;66.43;;;56.60;;
57663;SDS011;43493;53.098;6.064;2022-09-24T01:43:36;81.20;;;62.97;;
57663;SDS011;43493;53.098;6.064;2022-09-24T01:46:03;71.60;;;58.13;;
57663;SDS011;43493;53.098;6.064;2022-09-24T01:48:30;64.87;;;55.30;;
57663;SDS011;43493;53.098;6.064;2022-09-24T01:53:35;81.10;;;63.97;;
57663;SDS011;43493;53.098;6.064;2022-09-24T01:56:12;88.80;;;68.60;;
57663;SDS011;43493;53.098;6.064;2022-09-24T01:58:53;70.07;;;55.83;;
57663;SDS011;43493;53.098;6.064;2022-09-24T02:01:25;68.17;;;56.07;;
57663;SDS011;43493;53.098;6.064;2022-09-24T02:04:04;69.37;;;57.30;;
57663;SDS011;43493;53.098;6.064;2022-09-24T02:06:37;88.47;;;65.50;;
57663;SDS011;43493;53.098;6.064;2022-09-24T02:11:54;84.03;;;61.67;;
57663;SDS011;43493;53.098;6.064;2022-09-24T02:14:22;87.23;;;63.27;;
57663;SDS011;43493;53.098;6.064;2022-09-24T02:16:49;86.80;;;61.43;;
57663;SDS011;43493;53.098;6.064;2022-09-24T02:19:17;69.87;;;59.70;;
57663;SDS011;43493;53.098;6.064;2022-09-24T02:21:46;91.37;;;63.20;;
57663;SDS011;43493;53.098;6.064;2022-09-24T02:24:14;111.63;;;74.00;;
57663;SDS011;43493;53.098;6.064;2022-09-24T02:26:44;71.17;;;57.50;;
57663;SDS011;43493;53.098;6.064;2022-09-24T02:29:10;73.83;;;56.57;;
57663;SDS011;43493;53.098;6.064;2022-09-24T02:31:37;83.40;;;63.87;;
57663;SDS011;43493;53.098;6.064;2022-09-24T02:34:15;88.70;;;61.37;;
57663;SDS011;43493;53.098;6.064;2022-09-24T02:36:49;97.72;;;67.20;;
57663;SDS011;43493;53.098;6.064;2022-09-24T02:39:16;99.30;;;66.13;;
57663;SDS011;43493;53.098;6.064;2022-09-24T02:41:46;122.37;;;68.00;;
57663;SDS011;43493;53.098;6.064;2022-09-24T02:44:16;147.50;;;73.27;;
57663;SDS011;43493;53.098;6.064;2022-09-24T02:46:43;103.63;;;59.80;;
57663;SDS011;43493;53.098;6.064;2022-09-24T02:49:10;178.33;;;68.10;;
57663;SDS011;43493;53.098;6.064;2022-09-24T02:51:37;207.07;;;75.73;;
57663;SDS011;43493;53.098;6.064;2022-09-24T02:54:03;305.57;;;92.23;;
57663;SDS011;43493;53.098;6.064;2022-09-24T02:56:30;134.10;;;61.90;;
57663;SDS011;43493;53.098;6.064;2022-09-24T02:58:56;137.97;;;60.10;;
57663;SDS011;43493;53.098;6.064;2022-09-24T03:01:21;199.73;;;67.60;;
57663;SDS011;43493;53.098;6.064;2022-09-24T03:03:48;265.07;;;75.63;;
57663;SDS011;43493;53.098;6.064;2022-09-24T03:06:17;138.53;;;57.67;;
57663;SDS011;43493;53.098;6.064;2022-09-24T03:08:43;194.10;;;69.93;;
57663;SDS011;43493;53.098;6.064;2022-09-24T03:11:09;208.63;;;70.13;;
57663;SDS011;43493;53.098;6.064;2022-09-24T03:13:36;186.70;;;64.03;;
57663;SDS011;43493;53.098;6.064;2022-09-24T03:16:02;388.20;;;83.60;;
57663;SDS011;43493;53.098;6.064;2022-09-24T03:18:29;328.20;;;84.67;;
57663;SDS011;43493;53.098;6.064;2022-09-24T03:20:55;188.93;;;60.93;;
57663;SDS011;43493;53.098;6.064;2022-09-24T03:23:22;112.20;;;45.10;;
57663;SDS011;43493;53.098;6.064;2022-09-24T03:25:48;447.80;;;83.50;;
57663;SDS011;43493;53.098;6.064;2022-09-24T03:28:14;288.90;;;74.47;;
57663;SDS011;43493;53.098;6.064;2022-09-24T03:30:41;152.50;;;54.87;;
57663;SDS011;43493;53.098;6.064;2022-09-24T03:33:35;187.88;;;59.55;;
57663;SDS011;43493;53.098;6.064;2022-09-24T03:36:18;221.60;;;60.60;;
57663;SDS011;43493;53.098;6.064;2022-09-24T03:38:49;384.63;;;77.00;;
57663;SDS011;43493;53.098;6.064;2022-09-24T03:41:18;260.77;;;62.77;;
57663;SDS011;43493;53.098;6.064;2022-09-24T03:43:44;358.30;;;72.87;;
57663;SDS011;43493;53.098;6.064;2022-09-24T03:46:10;218.67;;;63.07;;
57663;SDS011;43493;53.098;6.064;2022-09-24T03:48:37;317.80;;;66.73;;
57663;SDS011;43493;53.098;6.064;2022-09-24T03:51:04;214.90;;;57.17;;
57663;SDS011;43493;53.098;6.064;2022-09-24T03:53:31;413.60;;;73.43;;
57663;SDS011;43493;53.098;6.064;2022-09-24T03:55:58;150.50;;;48.83;;
57663;SDS011;43493;53.098;6.064;2022-09-24T03:58:24;366.53;;;65.53;;
57663;SDS011;43493;53.098;6.064;2022-09-24T04:00:53;280.73;;;57.70;;
57663;SDS011;43493;53.098;6.064;2022-09-24T04:03:20;255.67;;;53.93;;
57663;SDS011;43493;53.098;6.064;2022-09-24T04:05:46;497.97;;;72.93;;
57663;SDS011;43493;53.098;6.064;2022-09-24T04:08:13;431.33;;;68.77;;
57663;SDS011;43493;53.098;6.064;2022-09-24T04:10:39;372.13;;;62.47;;
57663;SDS011;43493;53.098;6.064;2022-09-24T04:13:05;312.83;;;59.50;;
57663;SDS011;43493;53.098;6.064;2022-09-24T04:15:30;183.00;;;45.77;;
57663;SDS011;43493;53.098;6.064;2022-09-24T04:17:57;73.37;;;25.30;;
57663;SDS011;43493;53.098;6.064;2022-09-24T04:20:27;75.07;;;25.80;;
57663;SDS011;43493;53.098;6.064;2022-09-24T04:22:54;52.67;;;22.07;;
57663;SDS011;43493;53.098;6.064;2022-09-24T04:25:21;46.77;;;18.30;;
57663;SDS011;43493;53.098;6.064;2022-09-24T04:27:51;62.67;;;19.83;;
57663;SDS011;43493;53.098;6.064;2022-09-24T04:30:18;45.53;;;17.87;;
57663;SDS011;43493;53.098;6.064;2022-09-24T04:32:44;39.27;;;15.47;;
57663;SDS011;43493;53.098;6.064;2022-09-24T04:35:09;72.13;;;20.47;;
57663;SDS011;43493;53.098;6.064;2022-09-24T04:37:35;106.67;;;22.97;;
57663;SDS011;43493;53.098;6.064;2022-09-24T04:40:02;38.30;;;13.10;;
57663;SDS011;43493;53.098;6.064;2022-09-24T04:42:29;22.87;;;10.53;;
57663;SDS011;43493;53.098;6.064;2022-09-24T04:44:55;31.90;;;11.13;;
57663;SDS011;43493;53.098;6.064;2022-09-24T04:47:21;43.03;;;11.93;;
57663;SDS011;43493;53.098;6.064;2022-09-24T04:49:50;31.00;;;8.53;;
57663;SDS011;43493;53.098;6.064;2022-09-24T04:52:16;25.10;;;8.47;;
57663;SDS011;43493;53.098;6.064;2022-09-24T04:54:42;20.23;;;5.17;;
57663;SDS011;43493;53.098;6.064;2022-09-24T04:57:11;26.17;;;5.73;;
57663;SDS011;43493;53.098;6.064;2022-09-24T04:59:37;19.93;;;5.03;;
57663;SDS011;43493;53.098;6.064;2022-09-24T05:02:03;22.80;;;4.87;;
57663;SDS011;43493;53.098;6.064;2022-09-24T05:04:30;19.73;;;4.53;;
57663;SDS011;43493;53.098;6.064;2022-09-24T05:06:56;16.97;;;3.30;;
57663;SDS011;43493;53.098;6.064;2022-09-24T05:09:22;23.67;;;4.67;;
57663;SDS011;43493;53.098;6.064;2022-09-24T05:11:47;19.87;;;4.47;;
57663;SDS011;43493;53.098;6.064;2022-09-24T05:14:13;20.83;;;4.30;;
57663;SDS011;43493;53.098;6.064;2022-09-24T05:16:39;19.57;;;3.87;;
57663;SDS011;43493;53.098;6.064;2022-09-24T05:19:04;24.17;;;4.23;;
57663;SDS011;43493;53.098;6.064;2022-09-24T05:21:30;18.13;;;3.60;;
57663;SDS011;43493;53.098;6.064;2022-09-24T05:23:56;20.80;;;3.67;;
57663;SDS011;43493;53.098;6.064;2022-09-24T05:26:22;17.43;;;3.67;;
57663;SDS011;43493;53.098;6.064;2022-09-24T05:29:06;19.20;;;3.73;;
57663;SDS011;43493;53.098;6.064;2022-09-24T05:31:31;14.97;;;3.07;;
57663;SDS011;43493;53.098;6.064;2022-09-24T05:33:57;18.07;;;3.20;;
57663;SDS011;43493;53.098;6.064;2022-09-24T05:36:23;23.03;;;5.37;;
57663;SDS011;43493;53.098;6.064;2022-09-24T05:38:51;15.13;;;2.80;;
57663;SDS011;43493;53.098;6.064;2022-09-24T05:41:17;14.50;;;2.70;;
57663;SDS011;43493;53.098;6.064;2022-09-24T05:43:43;12.33;;;2.73;;
57663;SDS011;43493;53.098;6.064;2022-09-24T05:46:09;13.40;;;2.73;;
57663;SDS011;43493;53.098;6.064;2022-09-24T05:48:34;17.20;;;3.00;;
57663;SDS011;43493;53.098;6.064;2022-09-24T05:51:00;13.20;;;2.40;;
57663;SDS011;43493;53.098;6.064;2022-09-24T05:53:26;12.33;;;2.93;;
57663;SDS011;43493;53.098;6.064;2022-09-24T05:55:52;16.20;;;2.40;;
57663;SDS011;43493;53.098;6.064;2022-09-24T05:58:18;13.83;;;2.93;;
57663;SDS011;43493;53.098;6.064;2022-09-24T06:00:44;9.97;;;2.37;;
57663;SDS011;43493;53.098;6.064;2022-09-24T06:03:11;9.73;;;2.00;;
57663;SDS011;43493;53.098;6.064;2022-09-24T06:05:43;13.07;;;2.47;;
57663;SDS011;43493;53.098;6.064;2022-09-24T06:08:10;11.47;;;2.30;;
57663;SDS011;43493;53.098;6.064;2022-09-24T06:10:36;14.17;;;2.60;;
57663;SDS011;43493;53.098;6.064;2022-09-24T06:13:02;14.93;;;2.70;;
57663;SDS011;43493;53.098;6.064;2022-09-24T06:15:29;10.17;;;2.77;;
57663;SDS011;43493;53.098;6.064;2022-09-24T06:17:55;13.17;;;2.30;;
57663;SDS011;43493;53.098;6.064;2022-09-24T06:20:21;16.20;;;2.57;;
57663;SDS011;43493;53.098;6.064;2022-09-24T06:22:47;9.97;;;1.87;;
57663;SDS011;43493;53.098;6.064;2022-09-24T06:25:13;14.70;;;2.43;;
57663;SDS011;43493;53.098;6.064;2022-09-24T06:27:38;14.20;;;2.77;;
57663;SDS011;43493;53.098;6.064;2022-09-24T06:30:04;13.73;;;2.87;;
57663;SDS011;43493;53.098;6.064;2022-09-24T06:32:31;13.10;;;2.40;;
57663;SDS011;43493;53.098;6.064;2022-09-24T06:34:56;12.80;;;2.53;;
57663;SDS011;43493;53.098;6.064;2022-09-24T06:37:22;12.57;;;2.60;;
57663;SDS011;43493;53.098;6.064;2022-09-24T06:39:48;10.20;;;2.30;;
57663;SDS011;43493;53.098;6.064;2022-09-24T06:42:13;14.57;;;2.50;;
57663;SDS011;43493;53.098;6.064;2022-09-24T06:44:39;13.77;;;2.73;;
57663;SDS011;43493;53.098;6.064;2022-09-24T06:47:06;13.57;;;3.03;;
57663;SDS011;43493;53.098;6.064;2022-09-24T06:49:32;15.27;;;2.83;;
57663;SDS011;43493;53.098;6.064;2022-09-24T06:51:57;15.37;;;2.93;;
57663;SDS011;43493;53.098;6.064;2022-09-24T06:54:23;12.77;;;2.37;;
57663;SDS011;43493;53.098;6.064;2022-09-24T06:56:49;13.57;;;2.23;;
57663;SDS011;43493;53.098;6.064;2022-09-24T06:59:17;10.33;;;2.33;;
57663;SDS011;43493;53.098;6.064;2022-09-24T07:01:43;14.97;;;2.30;;
57663;SDS011;43493;53.098;6.064;2022-09-24T07:04:08;17.53;;;2.93;;
57663;SDS011;43493;53.098;6.064;2022-09-24T07:06:35;8.33;;;1.67;;
57663;SDS011;43493;53.098;6.064;2022-09-24T07:09:20;12.60;;;2.20;;
57663;SDS011;43493;53.098;6.064;2022-09-24T07:11:46;13.40;;;2.50;;
57663;SDS011;43493;53.098;6.064;2022-09-24T07:14:12;11.77;;;2.37;;
57663;SDS011;43493;53.098;6.064;2022-09-24T07:16:38;15.30;;;2.40;;
57663;SDS011;43493;53.098;6.064;2022-09-24T07:19:04;12.63;;;2.27;;
57663;SDS011;43493;53.098;6.064;2022-09-24T07:21:29;10.33;;;1.87;;
57663;SDS011;43493;53.098;6.064;2022-09-24T07:23:55;9.80;;;1.77;;
57663;SDS011;43493;53.098;6.064;2022-09-24T07:26:21;11.67;;;1.70;;
57663;SDS011;43493;53.098;6.064;2022-09-24T07:28:46;10.50;;;1.97;;
57663;SDS011;43493;53.098;6.064;2022-09-24T07:31:12;9.50;;;1.90;;
57663;SDS011;43493;53.098;6.064;2022-09-24T07:33:38;10.97;;;1.90;;
57663;SDS011;43493;53.098;6.064;2022-09-24T07:36:05;11.47;;;1.87;;
57663;SDS011;43493;53.098;6.064;2022-09-24T07:38:34;9.80;;;1.67;;
57663;SDS011;43493;53.098;6.064;2022-09-24T07:41:00;7.70;;;1.60;;
57663;SDS011;43493;53.098;6.064;2022-09-24T07:43:32;11.83;;;2.30;;
57663;SDS011;43493;53.098;6.064;2022-09-24T07:45:57;7.57;;;1.30;;
57663;SDS011;43493;53.098;6.064;2022-09-24T07:48:23;7.73;;;1.43;;
57663;SDS011;43493;53.098;6.064;2022-09-24T07:50:49;14.17;;;2.80;;
57663;SDS011;43493;53.098;6.064;2022-09-24T07:53:15;10.27;;;1.90;;
57663;SDS011;43493;53.098;6.064;2022-09-24T07:55:41;8.07;;;1.63;;
57663;SDS011;43493;53.098;6.064;2022-09-24T07:58:07;4.73;;;1.40;;
57663;SDS011;43493;53.098;6.064;2022-09-24T08:00:36;14.60;;;2.77;;
57663;SDS011;43493;53.098;6.064;2022-09-24T08:03:02;8.73;;;1.80;;
57663;SDS011;43493;53.098;6.064;2022-09-24T08:05:29;7.73;;;1.47;;
57663;SDS011;43493;53.098;6.064;2022-09-24T08:07:57;7.40;;;1.70;;
57663;SDS011;43493;53.098;6.064;2022-09-24T08:10:23;6.40;;;1.33;;
57663;SDS011;43493;53.098;6.064;2022-09-24T08:12:51;11.17;;;2.37;;
57663;SDS011;43493;53.098;6.064;2022-09-24T08:15:17;9.03;;;1.80;;
57663;SDS011;43493;53.098;6.064;2022-09-24T08:17:43;8.00;;;1.60;;
57663;SDS011;43493;53.098;6.064;2022-09-24T08:20:09;9.00;;;1.33;;
57663;SDS011;43493;53.098;6.064;2022-09-24T08:22:36;8.00;;;1.63;;
57663;SDS011;43493;53.098;6.064;2022-09-24T08:25:02;11.40;;;1.80;;
57663;SDS011;43493;53.098;6.064;2022-09-24T08:27:30;7.83;;;1.90;;
57663;SDS011;43493;53.098;6.064;2022-09-24T08:29:57;8.90;;;1.97;;
57663;SDS011;43493;53.098;6.064;2022-09-24T08:32:24;7.17;;;1.60;;
57663;SDS011;43493;53.098;6.064;2022-09-24T08:34:50;6.83;;;1.50;;
57663;SDS011;43493;53.098;6.064;2022-09-24T08:37:16;10.67;;;2.10;;
57663;SDS011;43493;53.098;6.064;2022-09-24T08:39:42;11.80;;;1.60;;
57663;SDS011;43493;53.098;6.064;2022-09-24T08:42:52;11.07;;;1.70;;
57663;SDS011;43493;53.098;6.064;2022-09-24T08:45:18;8.87;;;2.10;;
57663;SDS011;43493;53.098;6.064;2022-09-24T08:48:09;14.48;;;3.05;;
57663;SDS011;43493;53.098;6.064;2022-09-24T08:50:50;12.20;;;2.80;;
57663;SDS011;43493;53.098;6.064;2022-09-24T08:53:29;11.33;;;2.20;;
57663;SDS011;43493;53.098;6.064;2022-09-24T08:56:07;11.20;;;2.17;;
57663;SDS011;43493;53.098;6.064;2022-09-24T08:58:56;9.27;;;2.20;;
57663;SDS011;43493;53.098;6.064;2022-09-24T09:01:47;15.50;;;2.70;;
57663;SDS011;43493;53.098;6.064;2022-09-24T09:10:02;13.63;;;2.77;;
57663;SDS011;43493;53.098;6.064;2022-09-24T09:12:42;15.23;;;2.77;;
57663;SDS011;43493;53.098;6.064;2022-09-24T09:15:23;9.33;;;1.90;;
57663;SDS011;43493;53.098;6.064;2022-09-24T09:18:00;12.47;;;3.17;;
57663;SDS011;43493;53.098;6.064;2022-09-24T09:20:31;15.68;;;2.20;;
57663;SDS011;43493;53.098;6.064;2022-09-24T09:23:04;9.27;;;2.53;;
57663;SDS011;43493;53.098;6.064;2022-09-24T09:25:43;12.53;;;3.07;;
57663;SDS011;43493;53.098;6.064;2022-09-24T09:28:17;11.13;;;2.40;;
57663;SDS011;43493;53.098;6.064;2022-09-24T09:34:01;8.10;;;1.83;;
57663;SDS011;43493;53.098;6.064;2022-09-24T09:44:54;9.07;;;1.93;;
57663;SDS011;43493;53.098;6.064;2022-09-24T09:50:05;9.20;;;2.20;;
57663;SDS011;43493;53.098;6.064;2022-09-24T09:52:39;12.50;;;2.40;;
57663;SDS011;43493;53.098;6.064;2022-09-24T09:55:05;13.37;;;1.83;;
57663;SDS011;43493;53.098;6.064;2022-09-24T09:57:32;10.57;;;1.80;;
57663;SDS011;43493;53.098;6.064;2022-09-24T10:00:02;11.03;;;1.73;;
57663;SDS011;43493;53.098;6.064;2022-09-24T10:02:30;9.33;;;1.60;;
57663;SDS011;43493;53.098;6.064;2022-09-24T10:05:02;10.80;;;1.80;;
57663;SDS011;43493;53.098;6.064;2022-09-24T10:07:30;6.07;;;1.73;;
57663;SDS011;43493;53.098;6.064;2022-09-24T10:12:40;10.63;;;1.77;;
57663;SDS011;43493;53.098;6.064;2022-09-24T10:15:16;12.00;;;2.10;;
57663;SDS011;43493;53.098;6.064;2022-09-24T10:17:48;12.47;;;2.13;;
57663;SDS011;43493;53.098;6.064;2022-09-24T10:20:17;9.23;;;2.47;;
57663;SDS011;43493;53.098;6.064;2022-09-24T10:22:51;11.77;;;2.13;;
57663;SDS011;43493;53.098;6.064;2022-09-24T10:25:26;13.37;;;2.23;;
57663;SDS011;43493;53.098;6.064;2022-09-24T10:27:54;11.93;;;2.20;;
57663;SDS011;43493;53.098;6.064;2022-09-24T10:30:52;11.90;;;2.03;;
57663;SDS011;43493;53.098;6.064;2022-09-24T10:33:21;8.80;;;1.67;;
57663;SDS011;43493;53.098;6.064;2022-09-24T10:35:47;9.77;;;1.83;;
57663;SDS011;43493;53.098;6.064;2022-09-24T10:38:17;9.57;;;1.83;;
57663;SDS011;43493;53.098;6.064;2022-09-24T10:40:45;10.53;;;1.90;;
57663;SDS011;43493;53.098;6.064;2022-09-24T10:43:19;11.07;;;1.90;;
57663;SDS011;43493;53.098;6.064;2022-09-24T10:48:26;8.07;;;1.87;;
57663;SDS011;43493;53.098;6.064;2022-09-24T10:51:43;14.07;;;3.17;;
57663;SDS011;43493;53.098;6.064;2022-09-24T10:54:11;12.80;;;2.73;;
57663;SDS011;43493;53.098;6.064;2022-09-24T10:57:06;11.63;;;3.93;;
57663;SDS011;43493;53.098;6.064;2022-09-24T11:08:20;11.20;;;2.53;;
57663;SDS011;43493;53.098;6.064;2022-09-24T11:13:56;13.20;;;2.83;;
57663;SDS011;43493;53.098;6.064;2022-09-24T11:16:46;7.97;;;1.97;;
57663;SDS011;43493;53.098;6.064;2022-09-24T11:25:53;10.00;;;1.90;;
57663;SDS011;43493;53.098;6.064;2022-09-24T11:28:39;10.73;;;1.83;;
57663;SDS011;43493;53.098;6.064;2022-09-24T11:39:58;9.93;;;1.70;;
57663;SDS011;43493;53.098;6.064;2022-09-24T11:42:59;16.07;;;2.77;;
57663;SDS011;43493;53.098;6.064;2022-09-24T11:54:32;13.77;;;2.17;;
57663;SDS011;43493;53.098;6.064;2022-09-24T11:57:04;9.67;;;1.93;;
57663;SDS011;43493;53.098;6.064;2022-09-24T12:02:30;6.20;;;1.60;;
57663;SDS011;43493;53.098;6.064;2022-09-24T12:10:51;9.07;;;1.90;;
57663;SDS011;43493;53.098;6.064;2022-09-24T12:13:25;8.27;;;1.80;;
57663;SDS011;43493;53.098;6.064;2022-09-24T12:15:58;8.83;;;1.87;;
57663;SDS011;43493;53.098;6.064;2022-09-24T12:19:14;9.13;;;2.77;;
57663;SDS011;43493;53.098;6.064;2022-09-24T12:21:41;12.67;;;2.20;;
57663;SDS011;43493;53.098;6.064;2022-09-24T12:24:41;6.20;;;2.00;;
57663;SDS011;43493;53.098;6.064;2022-09-24T12:27:03;11.67;;;3.47;;
57663;SDS011;43493;53.098;6.064;2022-09-24T12:38:11;10.93;;;2.80;;
57663;SDS011;43493;53.098;6.064;2022-09-24T12:43:20;12.43;;;2.40;;
57663;SDS011;43493;53.098;6.064;2022-09-24T12:45:55;12.35;;;2.20;;
57663;SDS011;43493;53.098;6.064;2022-09-24T12:48:26;13.20;;;2.20;;
57663;SDS011;43493;53.098;6.064;2022-09-24T12:50:57;8.17;;;2.00;;
57663;SDS011;43493;53.098;6.064;2022-09-24T12:53:28;20.83;;;2.90;;
57663;SDS011;43493;53.098;6.064;2022-09-24T12:56:01;8.60;;;1.60;;
57663;SDS011;43493;53.098;6.064;2022-09-24T12:58:39;8.63;;;1.73;;
57663;SDS011;43493;53.098;6.064;2022-09-24T13:01:12;9.67;;;1.60;;
57663;SDS011;43493;53.098;6.064;2022-09-24T13:03:40;9.27;;;1.97;;
57663;SDS011;43493;53.098;6.064;2022-09-24T13:06:20;10.20;;;1.80;;
57663;SDS011;43493;53.098;6.064;2022-09-24T13:08:47;8.00;;;1.53;;
57663;SDS011;43493;53.098;6.064;2022-09-24T13:11:31;8.20;;;1.70;;
57663;SDS011;43493;53.098;6.064;2022-09-24T13:17:12;10.73;;;2.00;;
57663;SDS011;43493;53.098;6.064;2022-09-24T13:19:33;9.23;;;1.77;;
57663;SDS011;43493;53.098;6.064;2022-09-24T13:22:00;12.23;;;2.70;;
57663;SDS011;43493;53.098;6.064;2022-09-24T13:24:28;9.70;;;1.67;;
57663;SDS011;43493;53.098;6.064;2022-09-24T13:27:06;11.40;;;1.93;;
57663;SDS011;43493;53.098;6.064;2022-09-24T13:35:17;13.17;;;2.37;;
57663;SDS011;43493;53.098;6.064;2022-09-24T13:37:48;7.30;;;1.70;;
57663;SDS011;43493;53.098;6.064;2022-09-24T13:40:20;7.43;;;1.37;;
57663;SDS011;43493;53.098;6.064;2022-09-24T13:43:03;8.90;;;1.83;;
57663;SDS011;43493;53.098;6.064;2022-09-24T13:45:36;9.87;;;1.90;;
57663;SDS011;43493;53.098;6.064;2022-09-24T13:48:13;10.03;;;1.50;;
57663;SDS011;43493;53.098;6.064;2022-09-24T13:50:56;7.03;;;1.60;;
57663;SDS011;43493;53.098;6.064;2022-09-24T13:53:30;9.13;;;1.90;;
57663;SDS011;43493;53.098;6.064;2022-09-24T13:55:58;6.87;;;1.63;;
57663;SDS011;43493;53.098;6.064;2022-09-24T13:58:31;8.20;;;1.93;;
57663;SDS011;43493;53.098;6.064;2022-09-24T14:00:57;9.53;;;1.43;;
57663;SDS011;43493;53.098;6.064;2022-09-24T14:03:25;9.43;;;2.30;;
57663;SDS011;43493;53.098;6.064;2022-09-24T14:05:53;9.77;;;1.77;;
57663;SDS011;43493;53.098;6.064;2022-09-24T14:08:21;8.63;;;1.60;;
57663;SDS011;43493;53.098;6.064;2022-09-24T14:10:48;6.13;;;1.33;;
57663;SDS011;43493;53.098;6.064;2022-09-24T14:13:20;7.33;;;1.50;;
57663;SDS011;43493;53.098;6.064;2022-09-24T14:18:20;8.60;;;1.83;;
57663;SDS011;43493;53.098;6.064;2022-09-24T14:21:07;10.47;;;1.90;;
57663;SDS011;43493;53.098;6.064;2022-09-24T14:23:36;11.60;;;1.87;;
57663;SDS011;43493;53.098;6.064;2022-09-24T14:26:12;6.43;;;1.92;;
57663;SDS011;43493;53.098;6.064;2022-09-24T14:28:49;7.23;;;1.40;;
57663;SDS011;43493;53.098;6.064;2022-09-24T14:31:16;4.00;;;1.30;;
57663;SDS011;43493;53.098;6.064;2022-09-24T14:33:42;4.80;;;1.73;;
57663;SDS011;43493;53.098;6.064;2022-09-24T14:36:09;7.83;;;1.70;;
57663;SDS011;43493;53.098;6.064;2022-09-24T14:38:43;9.37;;;1.67;;
57663;SDS011;43493;53.098;6.064;2022-09-24T14:41:33;11.57;;;2.77;;
57663;SDS011;43493;53.098;6.064;2022-09-24T14:44:01;7.33;;;1.60;;
57663;SDS011;43493;53.098;6.064;2022-09-24T14:46:35;9.47;;;1.40;;
57663;SDS011;43493;53.098;6.064;2022-09-24T14:49:19;9.70;;;1.50;;
57663;SDS011;43493;53.098;6.064;2022-09-24T14:51:57;8.50;;;1.70;;
57663;SDS011;43493;53.098;6.064;2022-09-24T14:54:34;9.13;;;1.50;;
57663;SDS011;43493;53.098;6.064;2022-09-24T14:57:08;13.47;;;2.00;;
57663;SDS011;43493;53.098;6.064;2022-09-24T14:59:35;10.97;;;1.60;;
57663;SDS011;43493;53.098;6.064;2022-09-24T15:02:03;7.80;;;1.43;;
57663;SDS011;43493;53.098;6.064;2022-09-24T15:04:37;8.00;;;1.73;;
57663;SDS011;43493;53.098;6.064;2022-09-24T15:07:03;10.33;;;1.70;;
57663;SDS011;43493;53.098;6.064;2022-09-24T15:09:29;9.50;;;1.67;;
57663;SDS011;43493;53.098;6.064;2022-09-24T15:12:06;7.27;;;1.50;;
57663;SDS011;43493;53.098;6.064;2022-09-24T15:14:51;8.50;;;2.23;;
57663;SDS011;43493;53.098;6.064;2022-09-24T15:17:22;11.20;;;1.70;;
57663;SDS011;43493;53.098;6.064;2022-09-24T15:19:53;9.07;;;1.60;;
57663;SDS011;43493;53.098;6.064;2022-09-24T15:22:20;7.57;;;1.67;;
57663;SDS011;43493;53.098;6.064;2022-09-24T15:24:47;11.67;;;2.13;;
57663;SDS011;43493;53.098;6.064;2022-09-24T15:29:44;7.97;;;1.90;;
57663;SDS011;43493;53.098;6.064;2022-09-24T15:32:14;8.70;;;1.73;;
57663;SDS011;43493;53.098;6.064;2022-09-24T15:34:42;8.77;;;1.63;;
57663;SDS011;43493;53.098;6.064;2022-09-24T15:37:08;8.63;;;1.60;;
57663;SDS011;43493;53.098;6.064;2022-09-24T15:39:37;6.50;;;1.40;;
57663;SDS011;43493;53.098;6.064;2022-09-24T15:42:04;9.10;;;1.60;;
57663;SDS011;43493;53.098;6.064;2022-09-24T15:44:29;7.13;;;1.60;;
57663;SDS011;43493;53.098;6.064;2022-09-24T15:46:55;8.43;;;1.40;;
57663;SDS011;43493;53.098;6.064;2022-09-24T15:49:21;8.97;;;1.53;;
57663;SDS011;43493;53.098;6.064;2022-09-24T15:51:48;8.63;;;1.63;;
57663;SDS011;43493;53.098;6.064;2022-09-24T15:54:16;8.67;;;1.57;;
57663;SDS011;43493;53.098;6.064;2022-09-24T15:56:42;6.30;;;1.70;;
57663;SDS011;43493;53.098;6.064;2022-09-24T15:59:11;9.57;;;2.67;;
57663;SDS011;43493;53.098;6.064;2022-09-24T16:01:38;8.73;;;1.73;;
57663;SDS011;43493;53.098;6.064;2022-09-24T16:04:04;8.37;;;1.67;;
57663;SDS011;43493;53.098;6.064;2022-09-24T16:06:30;7.23;;;1.70;;
57663;SDS011;43493;53.098;6.064;2022-09-24T16:08:56;8.07;;;1.53;;
57663;SDS011;43493;53.098;6.064;2022-09-24T16:11:22;7.23;;;1.50;;
57663;SDS011;43493;53.098;6.064;2022-09-24T16:13:48;8.47;;;1.63;;
57663;SDS011;43493;53.098;6.064;2022-09-24T16:16:14;8.57;;;2.17;;
57663;SDS011;43493;53.098;6.064;2022-09-24T16:18:40;5.80;;;1.53;;
57663;SDS011;43493;53.098;6.064;2022-09-24T16:21:06;6.20;;;1.37;;
57663;SDS011;43493;53.098;6.064;2022-09-24T16:23:32;9.07;;;1.70;;
57663;SDS011;43493;53.098;6.064;2022-09-24T16:25:58;10.80;;;1.70;;
57663;SDS011;43493;53.098;6.064;2022-09-24T16:28:25;6.73;;;1.40;;
57663;SDS011;43493;53.098;6.064;2022-09-24T16:30:52;7.40;;;1.93;;
57663;SDS011;43493;53.098;6.064;2022-09-24T16:33:18;7.37;;;1.47;;
57663;SDS011;43493;53.098;6.064;2022-09-24T16:35:44;10.73;;;1.70;;
57663;SDS011;43493;53.098;6.064;2022-09-24T16:38:10;10.37;;;1.73;;
57663;SDS011;43493;53.098;6.064;2022-09-24T16:40:36;4.80;;;1.13;;
57663;SDS011;43493;53.098;6.064;2022-09-24T16:43:02;8.37;;;2.20;;
57663;SDS011;43493;53.098;6.064;2022-09-24T16:45:29;7.10;;;1.60;;